sensor_id;sensor_type;location;lat;lon;timestamp;P1;durP1;ratioP1;P2;durP2;ratioP2
20984;SDS011;10651;47.552;7.606;2022-08-06T00:00:47;4.57;;;4.03;;
20984;SDS011;10651;47.552;7.606;2022-08-06T00:03:18;5.13;;;4.15;;
20984;SDS011;10651;47.552;7.606;2022-08-06T00:05:44;9.70;;;4.35;;
20984;SDS011;10651;47.552;7.606;2022-08-06T00:08:12;6.85;;;4.20;;
20984;SDS011;10651;47.552;7.606;2022-08-06T00:11:03;7.40;;;3.88;;
20984;SDS011;10651;47.552;7.606;2022-08-06T00:13:32;4.70;;;3.92;;
20984;SDS011;10651;47.552;7.606;2022-08-06T00:16:03;7.65;;;3.22;;
20984;SDS011;10651;47.552;7.606;2022-08-06T00:18:37;4.53;;;4.03;;
20984;SDS011;10651;47.552;7.606;2022-08-06T00:21:06;3.75;;;3.42;;
20984;SDS011;10651;47.552;7.606;2022-08-06T00:23:41;7.78;;;3.40;;
20984;SDS011;10651;47.552;7.606;2022-08-06T00:26:15;3.85;;;3.45;;
20984;SDS011;10651;47.552;7.606;2022-08-06T00:28:49;4.50;;;3.30;;
20984;SDS011;10651;47.552;7.606;2022-08-06T00:31:18;3.60;;;3.30;;
20984;SDS011;10651;47.552;7.606;2022-08-06T00:33:45;5.20;;;3.53;;
20984;SDS011;10651;47.552;7.606;2022-08-06T00:36:16;6.93;;;3.25;;
20984;SDS011;10651;47.552;7.606;2022-08-06T00:38:49;5.13;;;3.70;;
20984;SDS011;10651;47.552;7.606;2022-08-06T00:41:46;6.45;;;3.55;;
20984;SDS011;10651;47.552;7.606;2022-08-06T00:44:15;10.02;;;3.35;;
20984;SDS011;10651;47.552;7.606;2022-08-06T00:46:55;3.90;;;3.50;;
20984;SDS011;10651;47.552;7.606;2022-08-06T00:49:24;5.95;;;3.35;;
20984;SDS011;10651;47.552;7.606;2022-08-06T00:51:55;4.68;;;3.00;;
20984;SDS011;10651;47.552;7.606;2022-08-06T00:54:27;4.75;;;3.00;;
20984;SDS011;10651;47.552;7.606;2022-08-06T00:57:04;7.72;;;3.40;;
20984;SDS011;10651;47.552;7.606;2022-08-06T00:59:43;5.07;;;2.95;;
20984;SDS011;10651;47.552;7.606;2022-08-06T01:02:09;5.32;;;3.60;;
20984;SDS011;10651;47.552;7.606;2022-08-06T01:04:35;4.47;;;3.00;;
20984;SDS011;10651;47.552;7.606;2022-08-06T01:07:04;4.65;;;3.03;;
20984;SDS011;10651;47.552;7.606;2022-08-06T01:09:32;5.07;;;2.90;;
20984;SDS011;10651;47.552;7.606;2022-08-06T01:12:04;5.45;;;2.97;;
20984;SDS011;10651;47.552;7.606;2022-08-06T01:14:31;5.75;;;2.75;;
20984;SDS011;10651;47.552;7.606;2022-08-06T01:17:01;5.68;;;3.03;;
20984;SDS011;10651;47.552;7.606;2022-08-06T01:22:24;3.72;;;2.55;;
20984;SDS011;10651;47.552;7.606;2022-08-06T01:28:11;7.07;;;2.58;;
20984;SDS011;10651;47.552;7.606;2022-08-06T01:30:46;5.28;;;2.80;;
20984;SDS011;10651;47.552;7.606;2022-08-06T01:35:56;3.30;;;2.47;;
20984;SDS011;10651;47.552;7.606;2022-08-06T01:38:31;3.22;;;2.40;;
20984;SDS011;10651;47.552;7.606;2022-08-06T01:41:22;3.67;;;2.53;;
20984;SDS011;10651;47.552;7.606;2022-08-06T01:44:10;2.63;;;2.25;;
20984;SDS011;10651;47.552;7.606;2022-08-06T01:46:48;6.72;;;2.28;;
20984;SDS011;10651;47.552;7.606;2022-08-06T01:49:25;4.90;;;2.15;;
20984;SDS011;10651;47.552;7.606;2022-08-06T01:51:59;3.58;;;2.28;;
20984;SDS011;10651;47.552;7.606;2022-08-06T01:54:31;4.32;;;2.50;;
20984;SDS011;10651;47.552;7.606;2022-08-06T01:57:28;9.43;;;2.40;;
20984;SDS011;10651;47.552;7.606;2022-08-06T01:59:58;3.05;;;2.50;;
20984;SDS011;10651;47.552;7.606;2022-08-06T02:02:30;3.85;;;2.17;;
20984;SDS011;10651;47.552;7.606;2022-08-06T02:05:02;5.03;;;2.20;;
20984;SDS011;10651;47.552;7.606;2022-08-06T02:07:34;6.00;;;2.38;;
20984;SDS011;10651;47.552;7.606;2022-08-06T02:10:05;5.72;;;1.92;;
20984;SDS011;10651;47.552;7.606;2022-08-06T02:12:37;4.35;;;2.20;;
20984;SDS011;10651;47.552;7.606;2022-08-06T02:15:21;4.55;;;1.80;;
20984;SDS011;10651;47.552;7.606;2022-08-06T02:18:00;6.25;;;2.10;;
20984;SDS011;10651;47.552;7.606;2022-08-06T02:20:32;5.53;;;2.13;;
20984;SDS011;10651;47.552;7.606;2022-08-06T02:23:09;4.38;;;2.08;;
20984;SDS011;10651;47.552;7.606;2022-08-06T02:25:40;2.65;;;2.20;;
20984;SDS011;10651;47.552;7.606;2022-08-06T02:28:22;3.67;;;2.22;;
20984;SDS011;10651;47.552;7.606;2022-08-06T02:30:56;4.82;;;2.03;;
20984;SDS011;10651;47.552;7.606;2022-08-06T02:33:31;3.53;;;1.92;;
20984;SDS011;10651;47.552;7.606;2022-08-06T02:38:42;5.75;;;1.95;;
20984;SDS011;10651;47.552;7.606;2022-08-06T02:44:14;5.72;;;2.60;;
20984;SDS011;10651;47.552;7.606;2022-08-06T02:46:50;4.97;;;2.30;;
20984;SDS011;10651;47.552;7.606;2022-08-06T02:49:29;8.45;;;2.45;;
20984;SDS011;10651;47.552;7.606;2022-08-06T02:52:12;3.55;;;2.17;;
20984;SDS011;10651;47.552;7.606;2022-08-06T03:00:50;3.67;;;1.88;;
20984;SDS011;10651;47.552;7.606;2022-08-06T03:03:27;5.25;;;1.88;;
20984;SDS011;10651;47.552;7.606;2022-08-06T03:05:57;4.35;;;1.90;;
20984;SDS011;10651;47.552;7.606;2022-08-06T03:08:32;2.60;;;2.08;;
20984;SDS011;10651;47.552;7.606;2022-08-06T03:11:01;5.30;;;2.17;;
20984;SDS011;10651;47.552;7.606;2022-08-06T03:13:36;2.30;;;2.00;;
20984;SDS011;10651;47.552;7.606;2022-08-06T03:16:09;8.85;;;2.17;;
20984;SDS011;10651;47.552;7.606;2022-08-06T03:19:03;6.82;;;2.65;;
20984;SDS011;10651;47.552;7.606;2022-08-06T03:21:31;3.63;;;1.80;;
20984;SDS011;10651;47.552;7.606;2022-08-06T03:24:20;3.55;;;2.05;;
20984;SDS011;10651;47.552;7.606;2022-08-06T03:26:50;4.63;;;2.40;;
20984;SDS011;10651;47.552;7.606;2022-08-06T03:29:28;3.35;;;2.17;;
20984;SDS011;10651;47.552;7.606;2022-08-06T03:32:13;2.75;;;2.20;;
20984;SDS011;10651;47.552;7.606;2022-08-06T03:34:46;3.15;;;2.10;;
20984;SDS011;10651;47.552;7.606;2022-08-06T03:37:38;6.03;;;2.47;;
20984;SDS011;10651;47.552;7.606;2022-08-06T03:40:10;2.58;;;2.10;;
20984;SDS011;10651;47.552;7.606;2022-08-06T03:43:01;3.75;;;2.17;;
20984;SDS011;10651;47.552;7.606;2022-08-06T03:45:30;2.88;;;1.90;;
20984;SDS011;10651;47.552;7.606;2022-08-06T03:48:02;3.15;;;2.10;;
20984;SDS011;10651;47.552;7.606;2022-08-06T03:50:40;4.07;;;2.20;;
20984;SDS011;10651;47.552;7.606;2022-08-06T03:53:23;2.28;;;1.80;;
20984;SDS011;10651;47.552;7.606;2022-08-06T03:55:55;2.83;;;1.90;;
20984;SDS011;10651;47.552;7.606;2022-08-06T03:58:32;3.83;;;2.42;;
20984;SDS011;10651;47.552;7.606;2022-08-06T04:01:03;2.58;;;2.10;;
20984;SDS011;10651;47.552;7.606;2022-08-06T04:03:33;3.28;;;2.00;;
20984;SDS011;10651;47.552;7.606;2022-08-06T04:06:02;3.67;;;1.77;;
20984;SDS011;10651;47.552;7.606;2022-08-06T04:08:30;5.90;;;2.33;;
20984;SDS011;10651;47.552;7.606;2022-08-06T04:11:01;4.13;;;1.90;;
20984;SDS011;10651;47.552;7.606;2022-08-06T04:13:30;3.22;;;1.95;;
20984;SDS011;10651;47.552;7.606;2022-08-06T04:16:02;3.08;;;2.00;;
20984;SDS011;10651;47.552;7.606;2022-08-06T04:18:33;6.25;;;1.90;;
20984;SDS011;10651;47.552;7.606;2022-08-06T04:21:10;2.78;;;2.13;;
20984;SDS011;10651;47.552;7.606;2022-08-06T04:23:42;6.07;;;2.67;;
20984;SDS011;10651;47.552;7.606;2022-08-06T04:26:08;4.22;;;2.28;;
20984;SDS011;10651;47.552;7.606;2022-08-06T04:28:45;7.20;;;2.42;;
20984;SDS011;10651;47.552;7.606;2022-08-06T04:31:34;6.15;;;2.67;;
20984;SDS011;10651;47.552;7.606;2022-08-06T04:34:04;2.92;;;2.35;;
20984;SDS011;10651;47.552;7.606;2022-08-06T04:36:33;4.82;;;2.13;;
20984;SDS011;10651;47.552;7.606;2022-08-06T04:39:00;6.22;;;2.40;;
20984;SDS011;10651;47.552;7.606;2022-08-06T04:41:31;2.30;;;2.10;;
20984;SDS011;10651;47.552;7.606;2022-08-06T04:44:00;2.70;;;2.40;;
20984;SDS011;10651;47.552;7.606;2022-08-06T04:46:28;3.10;;;2.03;;
20984;SDS011;10651;47.552;7.606;2022-08-06T04:49:17;3.88;;;2.42;;
20984;SDS011;10651;47.552;7.606;2022-08-06T04:51:47;4.20;;;2.33;;
20984;SDS011;10651;47.552;7.606;2022-08-06T04:54:18;5.95;;;2.60;;
20984;SDS011;10651;47.552;7.606;2022-08-06T04:56:53;5.38;;;2.55;;
20984;SDS011;10651;47.552;7.606;2022-08-06T04:59:19;4.75;;;2.28;;
20984;SDS011;10651;47.552;7.606;2022-08-06T05:01:53;3.75;;;2.33;;
20984;SDS011;10651;47.552;7.606;2022-08-06T05:04:20;6.00;;;2.28;;
20984;SDS011;10651;47.552;7.606;2022-08-06T05:06:52;5.43;;;2.47;;
20984;SDS011;10651;47.552;7.606;2022-08-06T05:09:32;5.05;;;2.72;;
20984;SDS011;10651;47.552;7.606;2022-08-06T05:12:05;8.15;;;2.60;;
20984;SDS011;10651;47.552;7.606;2022-08-06T05:14:38;3.90;;;2.60;;
20984;SDS011;10651;47.552;7.606;2022-08-06T05:17:12;3.35;;;2.70;;
20984;SDS011;10651;47.552;7.606;2022-08-06T05:19:45;4.20;;;2.85;;
20984;SDS011;10651;47.552;7.606;2022-08-06T05:22:17;5.43;;;2.83;;
20984;SDS011;10651;47.552;7.606;2022-08-06T05:24:47;3.70;;;2.47;;
20984;SDS011;10651;47.552;7.606;2022-08-06T05:27:13;4.03;;;2.47;;
20984;SDS011;10651;47.552;7.606;2022-08-06T05:29:40;4.32;;;2.45;;
20984;SDS011;10651;47.552;7.606;2022-08-06T05:32:09;4.32;;;2.83;;
20984;SDS011;10651;47.552;7.606;2022-08-06T05:34:41;4.90;;;2.60;;
20984;SDS011;10651;47.552;7.606;2022-08-06T05:37:07;3.45;;;2.65;;
20984;SDS011;10651;47.552;7.606;2022-08-06T05:39:33;6.55;;;2.42;;
20984;SDS011;10651;47.552;7.606;2022-08-06T05:41:59;4.45;;;2.50;;
20984;SDS011;10651;47.552;7.606;2022-08-06T05:44:25;2.78;;;2.30;;
20984;SDS011;10651;47.552;7.606;2022-08-06T05:46:52;6.43;;;2.53;;
20984;SDS011;10651;47.552;7.606;2022-08-06T05:54:56;3.05;;;2.42;;
20984;SDS011;10651;47.552;7.606;2022-08-06T05:58:10;5.22;;;2.40;;
20984;SDS011;10651;47.552;7.606;2022-08-06T06:00:36;3.75;;;2.45;;
20984;SDS011;10651;47.552;7.606;2022-08-06T06:03:10;4.95;;;2.58;;
20984;SDS011;10651;47.552;7.606;2022-08-06T06:05:37;10.02;;;2.40;;
20984;SDS011;10651;47.552;7.606;2022-08-06T06:08:06;4.05;;;2.30;;
20984;SDS011;10651;47.552;7.606;2022-08-06T06:10:37;8.63;;;2.83;;
20984;SDS011;10651;47.552;7.606;2022-08-06T06:13:14;6.13;;;2.78;;
20984;SDS011;10651;47.552;7.606;2022-08-06T06:15:55;5.63;;;2.65;;
20984;SDS011;10651;47.552;7.606;2022-08-06T06:25:02;4.10;;;2.60;;
20984;SDS011;10651;47.552;7.606;2022-08-06T06:30:46;3.80;;;2.55;;
20984;SDS011;10651;47.552;7.606;2022-08-06T06:33:34;8.45;;;2.30;;
20984;SDS011;10651;47.552;7.606;2022-08-06T06:36:21;5.50;;;2.60;;
20984;SDS011;10651;47.552;7.606;2022-08-06T06:39:07;4.25;;;2.90;;
20984;SDS011;10651;47.552;7.606;2022-08-06T06:42:03;5.95;;;2.70;;
20984;SDS011;10651;47.552;7.606;2022-08-06T06:45:19;3.50;;;2.50;;
20984;SDS011;10651;47.552;7.606;2022-08-06T06:48:04;4.72;;;2.33;;
20984;SDS011;10651;47.552;7.606;2022-08-06T06:50:41;4.40;;;2.10;;
20984;SDS011;10651;47.552;7.606;2022-08-06T06:53:16;3.28;;;2.30;;
20984;SDS011;10651;47.552;7.606;2022-08-06T06:55:46;3.60;;;2.20;;
20984;SDS011;10651;47.552;7.606;2022-08-06T07:01:25;5.15;;;2.67;;
20984;SDS011;10651;47.552;7.606;2022-08-06T07:04:00;4.28;;;2.55;;
20984;SDS011;10651;47.552;7.606;2022-08-06T07:06:42;3.85;;;2.20;;
20984;SDS011;10651;47.552;7.606;2022-08-06T07:09:19;4.80;;;2.75;;
20984;SDS011;10651;47.552;7.606;2022-08-06T07:12:04;4.10;;;2.60;;
20984;SDS011;10651;47.552;7.606;2022-08-06T07:14:49;8.82;;;2.95;;
20984;SDS011;10651;47.552;7.606;2022-08-06T07:17:39;5.40;;;2.58;;
20984;SDS011;10651;47.552;7.606;2022-08-06T07:23:15;6.13;;;2.90;;
20984;SDS011;10651;47.552;7.606;2022-08-06T07:25:51;4.10;;;2.67;;
20984;SDS011;10651;47.552;7.606;2022-08-06T07:28:56;4.72;;;2.45;;
20984;SDS011;10651;47.552;7.606;2022-08-06T07:31:38;4.97;;;2.72;;
20984;SDS011;10651;47.552;7.606;2022-08-06T07:34:14;3.35;;;2.47;;
20984;SDS011;10651;47.552;7.606;2022-08-06T07:37:18;3.63;;;2.35;;
20984;SDS011;10651;47.552;7.606;2022-08-06T07:39:58;2.85;;;2.35;;
20984;SDS011;10651;47.552;7.606;2022-08-06T07:42:36;3.58;;;2.67;;
20984;SDS011;10651;47.552;7.606;2022-08-06T07:45:16;3.92;;;2.50;;
20984;SDS011;10651;47.552;7.606;2022-08-06T07:47:49;5.20;;;2.50;;
20984;SDS011;10651;47.552;7.606;2022-08-06T07:50:36;5.32;;;2.75;;
20984;SDS011;10651;47.552;7.606;2022-08-06T07:53:15;5.97;;;2.95;;
20984;SDS011;10651;47.552;7.606;2022-08-06T07:55:57;2.70;;;2.45;;
20984;SDS011;10651;47.552;7.606;2022-08-06T07:59:09;4.88;;;2.47;;
20984;SDS011;10651;47.552;7.606;2022-08-06T08:02:00;6.47;;;2.92;;
20984;SDS011;10651;47.552;7.606;2022-08-06T08:04:48;4.50;;;3.17;;
20984;SDS011;10651;47.552;7.606;2022-08-06T08:07:39;3.80;;;2.92;;
20984;SDS011;10651;47.552;7.606;2022-08-06T08:10:51;4.35;;;2.72;;
20984;SDS011;10651;47.552;7.606;2022-08-06T08:13:58;8.40;;;3.22;;
20984;SDS011;10651;47.552;7.606;2022-08-06T08:16:28;3.72;;;2.97;;
20984;SDS011;10651;47.552;7.606;2022-08-06T08:19:00;8.10;;;3.00;;
20984;SDS011;10651;47.552;7.606;2022-08-06T08:25:25;7.03;;;3.13;;
20984;SDS011;10651;47.552;7.606;2022-08-06T08:27:57;7.20;;;3.10;;
20984;SDS011;10651;47.552;7.606;2022-08-06T08:30:36;6.85;;;2.88;;
20984;SDS011;10651;47.552;7.606;2022-08-06T08:33:37;6.03;;;3.28;;
20984;SDS011;10651;47.552;7.606;2022-08-06T08:36:26;6.65;;;2.78;;
20984;SDS011;10651;47.552;7.606;2022-08-06T08:38:52;13.70;;;3.08;;
20984;SDS011;10651;47.552;7.606;2022-08-06T08:41:31;8.27;;;2.95;;
20984;SDS011;10651;47.552;7.606;2022-08-06T08:44:26;6.47;;;3.47;;
20984;SDS011;10651;47.552;7.606;2022-08-06T08:46:57;7.78;;;3.08;;
20984;SDS011;10651;47.552;7.606;2022-08-06T08:52:12;8.07;;;3.25;;
20984;SDS011;10651;47.552;7.606;2022-08-06T08:57:40;7.38;;;2.95;;
20984;SDS011;10651;47.552;7.606;2022-08-06T09:03:40;4.90;;;3.03;;
20984;SDS011;10651;47.552;7.606;2022-08-06T09:06:49;4.60;;;2.85;;
20984;SDS011;10651;47.552;7.606;2022-08-06T09:09:30;5.45;;;2.95;;
20984;SDS011;10651;47.552;7.606;2022-08-06T09:12:00;6.35;;;2.70;;
20984;SDS011;10651;47.552;7.606;2022-08-06T09:14:26;9.55;;;3.00;;
20984;SDS011;10651;47.552;7.606;2022-08-06T09:17:06;16.92;;;3.58;;
20984;SDS011;10651;47.552;7.606;2022-08-06T09:19:43;6.10;;;3.45;;
20984;SDS011;10651;47.552;7.606;2022-08-06T09:22:13;7.53;;;3.47;;
20984;SDS011;10651;47.552;7.606;2022-08-06T09:24:39;9.95;;;3.17;;
20984;SDS011;10651;47.552;7.606;2022-08-06T09:29:52;7.55;;;3.55;;
20984;SDS011;10651;47.552;7.606;2022-08-06T09:32:41;6.30;;;3.22;;
20984;SDS011;10651;47.552;7.606;2022-08-06T09:35:30;8.02;;;3.63;;
20984;SDS011;10651;47.552;7.606;2022-08-06T09:38:25;6.80;;;4.03;;
20984;SDS011;10651;47.552;7.606;2022-08-06T09:41:10;5.43;;;3.65;;
20984;SDS011;10651;47.552;7.606;2022-08-06T09:43:43;9.75;;;3.83;;
20984;SDS011;10651;47.552;7.606;2022-08-06T09:46:56;6.85;;;4.00;;
20984;SDS011;10651;47.552;7.606;2022-08-06T09:49:55;6.20;;;3.50;;
20984;SDS011;10651;47.552;7.606;2022-08-06T09:52:26;4.72;;;3.45;;
20984;SDS011;10651;47.552;7.606;2022-08-06T09:58:34;6.00;;;3.40;;
20984;SDS011;10651;47.552;7.606;2022-08-06T10:01:26;4.85;;;2.83;;
20984;SDS011;10651;47.552;7.606;2022-08-06T10:04:03;7.90;;;3.40;;
20984;SDS011;10651;47.552;7.606;2022-08-06T10:06:50;5.88;;;3.60;;
20984;SDS011;10651;47.552;7.606;2022-08-06T10:09:32;6.75;;;3.90;;
20984;SDS011;10651;47.552;7.606;2022-08-06T10:12:02;5.85;;;3.65;;
20984;SDS011;10651;47.552;7.606;2022-08-06T10:14:48;7.40;;;3.63;;
20984;SDS011;10651;47.552;7.606;2022-08-06T10:23:04;7.38;;;3.85;;
20984;SDS011;10651;47.552;7.606;2022-08-06T10:25:38;5.47;;;3.28;;
20984;SDS011;10651;47.552;7.606;2022-08-06T10:28:06;7.22;;;3.67;;
20984;SDS011;10651;47.552;7.606;2022-08-06T10:31:18;7.85;;;4.07;;
20984;SDS011;10651;47.552;7.606;2022-08-06T10:33:53;9.07;;;4.15;;
20984;SDS011;10651;47.552;7.606;2022-08-06T10:39:39;6.03;;;3.85;;
20984;SDS011;10651;47.552;7.606;2022-08-06T10:42:29;9.15;;;3.63;;
20984;SDS011;10651;47.552;7.606;2022-08-06T10:45:17;10.98;;;4.80;;
20984;SDS011;10651;47.552;7.606;2022-08-06T10:48:09;5.57;;;4.30;;
20984;SDS011;10651;47.552;7.606;2022-08-06T10:50:53;13.32;;;4.75;;
20984;SDS011;10651;47.552;7.606;2022-08-06T10:53:22;6.93;;;3.97;;
20984;SDS011;10651;47.552;7.606;2022-08-06T10:56:05;7.93;;;4.22;;
20984;SDS011;10651;47.552;7.606;2022-08-06T10:58:35;9.13;;;3.75;;
20984;SDS011;10651;47.552;7.606;2022-08-06T11:04:08;6.32;;;4.07;;
20984;SDS011;10651;47.552;7.606;2022-08-06T11:13:09;8.40;;;4.03;;
20984;SDS011;10651;47.552;7.606;2022-08-06T11:15:56;6.70;;;4.20;;
20984;SDS011;10651;47.552;7.606;2022-08-06T11:18:25;4.45;;;3.70;;
20984;SDS011;10651;47.552;7.606;2022-08-06T11:21:04;7.20;;;3.97;;
20984;SDS011;10651;47.552;7.606;2022-08-06T11:23:35;6.35;;;3.42;;
20984;SDS011;10651;47.552;7.606;2022-08-06T11:26:12;4.97;;;3.58;;
20984;SDS011;10651;47.552;7.606;2022-08-06T11:29:13;8.23;;;3.33;;
20984;SDS011;10651;47.552;7.606;2022-08-06T11:32:04;8.00;;;4.40;;
20984;SDS011;10651;47.552;7.606;2022-08-06T11:41:25;6.38;;;3.65;;
20984;SDS011;10651;47.552;7.606;2022-08-06T11:44:37;10.35;;;3.67;;
20984;SDS011;10651;47.552;7.606;2022-08-06T11:47:31;5.15;;;3.03;;
20984;SDS011;10651;47.552;7.606;2022-08-06T11:50:24;6.53;;;2.92;;
20984;SDS011;10651;47.552;7.606;2022-08-06T11:52:55;4.43;;;3.00;;
20984;SDS011;10651;47.552;7.606;2022-08-06T11:55:21;11.18;;;3.40;;
20984;SDS011;10651;47.552;7.606;2022-08-06T12:01:08;4.78;;;3.10;;
20984;SDS011;10651;47.552;7.606;2022-08-06T12:03:53;5.50;;;3.47;;
20984;SDS011;10651;47.552;7.606;2022-08-06T12:09:45;6.65;;;3.42;;
20984;SDS011;10651;47.552;7.606;2022-08-06T12:17:58;4.03;;;2.88;;
20984;SDS011;10651;47.552;7.606;2022-08-06T12:20:43;6.85;;;3.05;;
20984;SDS011;10651;47.552;7.606;2022-08-06T12:23:14;4.00;;;3.03;;
20984;SDS011;10651;47.552;7.606;2022-08-06T12:26:05;4.90;;;2.70;;
20984;SDS011;10651;47.552;7.606;2022-08-06T12:29:05;5.38;;;2.95;;
20984;SDS011;10651;47.552;7.606;2022-08-06T12:31:42;3.92;;;3.03;;
20984;SDS011;10651;47.552;7.606;2022-08-06T12:34:26;7.72;;;3.15;;
20984;SDS011;10651;47.552;7.606;2022-08-06T12:37:09;4.18;;;3.00;;
20984;SDS011;10651;47.552;7.606;2022-08-06T12:39:44;5.72;;;3.55;;
20984;SDS011;10651;47.552;7.606;2022-08-06T12:42:32;7.10;;;3.88;;
20984;SDS011;10651;47.552;7.606;2022-08-06T12:45:03;3.65;;;2.78;;
20984;SDS011;10651;47.552;7.606;2022-08-06T12:47:42;4.25;;;3.35;;
20984;SDS011;10651;47.552;7.606;2022-08-06T12:53:59;6.65;;;3.22;;
20984;SDS011;10651;47.552;7.606;2022-08-06T12:56:32;5.68;;;2.90;;
20984;SDS011;10651;47.552;7.606;2022-08-06T12:59:10;8.00;;;3.00;;
20984;SDS011;10651;47.552;7.606;2022-08-06T13:01:44;5.28;;;2.88;;
20984;SDS011;10651;47.552;7.606;2022-08-06T13:04:15;4.75;;;2.70;;
20984;SDS011;10651;47.552;7.606;2022-08-06T13:07:06;5.25;;;2.95;;
20984;SDS011;10651;47.552;7.606;2022-08-06T13:09:45;4.45;;;2.63;;
20984;SDS011;10651;47.552;7.606;2022-08-06T13:12:20;4.38;;;2.70;;
20984;SDS011;10651;47.552;7.606;2022-08-06T13:20:39;5.25;;;3.13;;
20984;SDS011;10651;47.552;7.606;2022-08-06T13:23:13;7.72;;;2.92;;
20984;SDS011;10651;47.552;7.606;2022-08-06T13:25:48;4.43;;;2.60;;
20984;SDS011;10651;47.552;7.606;2022-08-06T13:28:20;3.90;;;2.90;;
20984;SDS011;10651;47.552;7.606;2022-08-06T13:30:52;5.32;;;2.92;;
20984;SDS011;10651;47.552;7.606;2022-08-06T13:33:26;4.63;;;2.97;;
20984;SDS011;10651;47.552;7.606;2022-08-06T13:36:05;5.95;;;3.22;;
20984;SDS011;10651;47.552;7.606;2022-08-06T13:38:42;4.72;;;3.10;;
20984;SDS011;10651;47.552;7.606;2022-08-06T13:41:23;3.92;;;2.75;;
20984;SDS011;10651;47.552;7.606;2022-08-06T13:44:31;3.25;;;2.70;;
20984;SDS011;10651;47.552;7.606;2022-08-06T13:47:00;4.18;;;3.20;;
20984;SDS011;10651;47.552;7.606;2022-08-06T13:49:42;7.85;;;3.10;;
20984;SDS011;10651;47.552;7.606;2022-08-06T13:52:29;3.08;;;2.78;;
20984;SDS011;10651;47.552;7.606;2022-08-06T13:54:57;4.25;;;2.70;;
20984;SDS011;10651;47.552;7.606;2022-08-06T13:57:35;4.18;;;2.47;;
20984;SDS011;10651;47.552;7.606;2022-08-06T14:00:04;4.78;;;3.00;;
20984;SDS011;10651;47.552;7.606;2022-08-06T14:02:37;3.88;;;3.00;;
20984;SDS011;10651;47.552;7.606;2022-08-06T14:05:12;4.00;;;2.45;;
20984;SDS011;10651;47.552;7.606;2022-08-06T14:07:38;4.25;;;2.97;;
20984;SDS011;10651;47.552;7.606;2022-08-06T14:10:07;4.68;;;2.67;;
20984;SDS011;10651;47.552;7.606;2022-08-06T14:12:42;4.53;;;3.17;;
20984;SDS011;10651;47.552;7.606;2022-08-06T14:15:37;4.00;;;2.85;;
20984;SDS011;10651;47.552;7.606;2022-08-06T14:18:05;7.60;;;2.83;;
20984;SDS011;10651;47.552;7.606;2022-08-06T14:20:35;4.97;;;3.30;;
20984;SDS011;10651;47.552;7.606;2022-08-06T14:23:07;2.85;;;2.60;;
20984;SDS011;10651;47.552;7.606;2022-08-06T14:25:34;6.63;;;2.65;;
20984;SDS011;10651;47.552;7.606;2022-08-06T14:28:09;5.03;;;3.08;;
20984;SDS011;10651;47.552;7.606;2022-08-06T14:30:35;5.70;;;3.03;;
20984;SDS011;10651;47.552;7.606;2022-08-06T14:33:08;8.32;;;2.55;;
20984;SDS011;10651;47.552;7.606;2022-08-06T14:35:46;6.22;;;3.17;;
20984;SDS011;10651;47.552;7.606;2022-08-06T14:38:21;3.50;;;3.00;;
20984;SDS011;10651;47.552;7.606;2022-08-06T14:41:00;5.30;;;2.65;;
20984;SDS011;10651;47.552;7.606;2022-08-06T14:43:47;5.90;;;3.08;;
20984;SDS011;10651;47.552;7.606;2022-08-06T14:46:34;4.53;;;2.90;;
20984;SDS011;10651;47.552;7.606;2022-08-06T14:49:02;6.88;;;3.42;;
20984;SDS011;10651;47.552;7.606;2022-08-06T14:51:28;4.75;;;2.55;;
20984;SDS011;10651;47.552;7.606;2022-08-06T14:54:00;5.00;;;2.88;;
20984;SDS011;10651;47.552;7.606;2022-08-06T14:56:34;7.30;;;2.70;;
20984;SDS011;10651;47.552;7.606;2022-08-06T14:59:01;6.50;;;2.70;;
20984;SDS011;10651;47.552;7.606;2022-08-06T15:01:27;3.63;;;2.60;;
20984;SDS011;10651;47.552;7.606;2022-08-06T15:03:55;6.57;;;3.10;;
20984;SDS011;10651;47.552;7.606;2022-08-06T15:06:21;7.40;;;3.00;;
20984;SDS011;10651;47.552;7.606;2022-08-06T15:08:52;4.88;;;2.90;;
20984;SDS011;10651;47.552;7.606;2022-08-06T15:11:18;4.03;;;3.00;;
20984;SDS011;10651;47.552;7.606;2022-08-06T15:13:46;3.85;;;3.03;;
20984;SDS011;10651;47.552;7.606;2022-08-06T15:16:16;6.68;;;3.17;;
20984;SDS011;10651;47.552;7.606;2022-08-06T15:18:48;5.30;;;3.33;;
20984;SDS011;10651;47.552;7.606;2022-08-06T15:21:13;5.72;;;2.80;;
20984;SDS011;10651;47.552;7.606;2022-08-06T15:23:39;3.15;;;2.70;;
20984;SDS011;10651;47.552;7.606;2022-08-06T15:26:08;5.18;;;3.38;;
20984;SDS011;10651;47.552;7.606;2022-08-06T15:28:34;5.22;;;3.30;;
20984;SDS011;10651;47.552;7.606;2022-08-06T15:31:07;4.05;;;2.70;;
20984;SDS011;10651;47.552;7.606;2022-08-06T15:33:38;5.70;;;2.53;;
20984;SDS011;10651;47.552;7.606;2022-08-06T15:36:14;6.25;;;2.60;;
20984;SDS011;10651;47.552;7.606;2022-08-06T15:38:43;6.65;;;2.60;;
20984;SDS011;10651;47.552;7.606;2022-08-06T15:41:25;5.15;;;2.40;;
20984;SDS011;10651;47.552;7.606;2022-08-06T15:43:56;2.72;;;2.50;;
20984;SDS011;10651;47.552;7.606;2022-08-06T15:46:25;5.72;;;2.50;;
20984;SDS011;10651;47.552;7.606;2022-08-06T15:48:59;2.80;;;2.50;;
20984;SDS011;10651;47.552;7.606;2022-08-06T15:51:34;4.18;;;3.00;;
20984;SDS011;10651;47.552;7.606;2022-08-06T15:54:12;3.70;;;2.72;;
20984;SDS011;10651;47.552;7.606;2022-08-06T15:56:41;3.70;;;2.25;;
20984;SDS011;10651;47.552;7.606;2022-08-06T15:59:40;3.17;;;2.67;;
20984;SDS011;10651;47.552;7.606;2022-08-06T16:02:06;6.97;;;2.67;;
20984;SDS011;10651;47.552;7.606;2022-08-06T16:04:37;4.80;;;2.30;;
20984;SDS011;10651;47.552;7.606;2022-08-06T16:07:04;3.83;;;2.53;;
20984;SDS011;10651;47.552;7.606;2022-08-06T16:09:33;5.45;;;2.60;;
20984;SDS011;10651;47.552;7.606;2022-08-06T16:12:03;5.28;;;2.85;;
20984;SDS011;10651;47.552;7.606;2022-08-06T16:14:32;2.90;;;2.40;;
20984;SDS011;10651;47.552;7.606;2022-08-06T16:17:00;4.40;;;2.65;;
20984;SDS011;10651;47.552;7.606;2022-08-06T16:22:08;6.40;;;2.30;;
20984;SDS011;10651;47.552;7.606;2022-08-06T16:24:35;3.67;;;2.50;;
20984;SDS011;10651;47.552;7.606;2022-08-06T16:27:03;3.35;;;2.67;;
20984;SDS011;10651;47.552;7.606;2022-08-06T16:29:38;4.97;;;2.70;;
20984;SDS011;10651;47.552;7.606;2022-08-06T16:32:07;6.20;;;2.70;;
20984;SDS011;10651;47.552;7.606;2022-08-06T16:34:35;3.97;;;2.72;;
20984;SDS011;10651;47.552;7.606;2022-08-06T16:37:08;7.70;;;2.40;;
20984;SDS011;10651;47.552;7.606;2022-08-06T16:39:45;7.97;;;3.00;;
20984;SDS011;10651;47.552;7.606;2022-08-06T16:42:11;9.60;;;2.65;;
20984;SDS011;10651;47.552;7.606;2022-08-06T16:44:42;4.10;;;2.83;;
20984;SDS011;10651;47.552;7.606;2022-08-06T16:47:08;5.72;;;2.80;;
20984;SDS011;10651;47.552;7.606;2022-08-06T16:49:34;7.63;;;2.83;;
20984;SDS011;10651;47.552;7.606;2022-08-06T16:52:00;4.30;;;2.83;;
20984;SDS011;10651;47.552;7.606;2022-08-06T16:54:29;5.07;;;2.95;;
20984;SDS011;10651;47.552;7.606;2022-08-06T16:56:55;4.50;;;2.30;;
20984;SDS011;10651;47.552;7.606;2022-08-06T16:59:31;4.55;;;2.90;;
20984;SDS011;10651;47.552;7.606;2022-08-06T17:01:57;6.57;;;2.60;;
20984;SDS011;10651;47.552;7.606;2022-08-06T17:04:41;5.28;;;3.00;;
20984;SDS011;10651;47.552;7.606;2022-08-06T17:07:19;6.72;;;3.00;;
20984;SDS011;10651;47.552;7.606;2022-08-06T17:09:47;4.47;;;3.15;;
20984;SDS011;10651;47.552;7.606;2022-08-06T17:12:18;5.72;;;2.72;;
20984;SDS011;10651;47.552;7.606;2022-08-06T17:14:53;4.50;;;3.13;;
20984;SDS011;10651;47.552;7.606;2022-08-06T17:17:27;4.45;;;3.17;;
20984;SDS011;10651;47.552;7.606;2022-08-06T17:20:09;3.17;;;2.60;;
20984;SDS011;10651;47.552;7.606;2022-08-06T17:22:38;4.03;;;3.10;;
20984;SDS011;10651;47.552;7.606;2022-08-06T17:25:04;5.72;;;2.88;;
20984;SDS011;10651;47.552;7.606;2022-08-06T17:27:46;5.20;;;3.00;;
20984;SDS011;10651;47.552;7.606;2022-08-06T17:30:15;6.25;;;3.10;;
20984;SDS011;10651;47.552;7.606;2022-08-06T17:32:41;4.20;;;2.65;;